Time;durP1;ratioP1;P1;durP2;ratioP2;P2;SDS_P1;SDS_P2;PMS_P1;PMS_P2;Temp;Humidity;BMP_temperature;BMP_pressure;BME280_temperature;BME280_humidity;BME280_pressure;Samples;Min_cycle;Max_cycle;Signal;HPM_P1;HPM_P2
2023/03/19 00:00:29;;;;;;;;;;;;;;;;;;2212664;59;1230;-68
2023/03/19 00:02:59;;;;;;;;;;;;;;;;;;2213178;67;1122;-68
2023/03/19 00:05:30;;;;;;;;;;;;;;;;;;2212720;67;1182;-67
2023/03/19 00:08:00;;;;;;;;;;;;;;;;;;2212274;67;1978;-68
2023/03/19 00:10:39;;;;;;;;;;;;;;;;;;2214722;66;1164;-69
2023/03/19 00:13:12;;;;;;;;;;;;;;;;;;2212695;67;1149;-68
2023/03/19 00:15:43;;;;;;;;;;;;;;;;;;2215156;66;1206;-68
2023/03/19 00:18:15;;;;;;;;;;;;;;;;;;2213011;59;1307;-68
2023/03/19 00:20:46;;;;;;;;;;;;;;;;;;2212286;59;1181;-68
2023/03/19 00:23:16;;;;;;;;;;;;;;;;;;2212803;66;1163;-68
2023/03/19 00:25:47;;;;;;;;;;;;;;;;;;2210987;67;1163;-68
2023/03/19 00:28:17;;;;;;;;;;;;;;;;;;2212618;67;1945;-68
2023/03/19 00:30:48;;;;;;;;;;;;;;;;;;2212459;67;1140;-69
2023/03/19 00:33:19;;;;;;;;;;;;;;;;;;2212683;67;1283;-68
2023/03/19 00:35:50;;;;;;;;;;;;;;;;;;2212082;59;1701;-68
2023/03/19 00:38:20;;;;;;;;;;;;;;;;;;2211934;59;1774;-69
2023/03/19 00:40:52;;;;;;;;;;;;;;;;;;2212825;67;1218;-68
2023/03/19 00:43:28;;;;;;;;;;;;;;;;;;2212588;66;1070;-69
2023/03/19 00:45:59;;;;;;;;;;;;;;;;;;2211590;59;1034;-69
2023/03/19 00:48:29;;;;;;;;;;;;;;;;;;2212517;67;1908;-69
2023/03/19 00:51:03;;;;;;;;;;;;;;;;;;2212096;67;1136;-69
2023/03/19 00:53:41;;;;;;;;;;;;;;;;;;2211865;67;1085;-69
2023/03/19 00:56:12;;;;;;;;;;;;;;;;;;2212231;67;1143;-68
2023/03/19 00:59:03;;;;;;;;;;;;;;;;;;2212511;66;1245;-69
2023/03/19 01:01:33;;;;;;;;;;;;;;;;;;2209797;67;1592;-69
2023/03/19 01:04:03;;;;;;;;;;;;;;;;;;2212830;67;1248;-68
2023/03/19 01:06:34;;;;;;;;;;;;;;;;;;2212454;66;1122;-68
2023/03/19 01:09:05;;;;;;;;;;;;;;;;;;2212611;67;1928;-68
2023/03/19 01:11:43;;;;;;;;;;;;;;;;;;2212240;67;1273;-69
2023/03/19 01:14:15;;;;;;;;;;;;;;;;;;2213164;66;1170;-68
2023/03/19 01:16:45;;;;;;;;;;;;;;;;;;2212146;66;1267;-68
2023/03/19 01:19:15;;;;;;;;;;;;;;;;;;2212263;67;1260;-68
2023/03/19 01:21:48;;;;;;;;;;;;;;;;;;2212916;67;1230;-68
2023/03/19 01:24:19;;;;;;;;;;;;;;;;;;2213019;66;1295;-69
2023/03/19 01:26:49;;;;;;;;;;;;;;;;;;2212389;66;1231;-69
2023/03/19 01:29:20;;;;;;;;;;;;;;;;;;2212315;66;1945;-69
2023/03/19 01:31:50;;;;;;;;;;;;;;;;;;2212773;67;1199;-68
2023/03/19 01:34:21;;;;;;;;;;;;;;;;;;2212840;59;1266;-68
2023/03/19 01:36:52;;;;;;;;;;;;;;;;;;2212362;59;1292;-68
2023/03/19 01:39:22;;;;;;;;;;;;;;;;;;2212650;59;1186;-68
2023/03/19 01:41:53;;;;;;;;;;;;;;;;;;2212568;67;1065;-69
2023/03/19 01:44:29;;;;;;;;;;;;;;;;;;2212250;67;1021;-69
2023/03/19 01:47:02;;;;;;;;;;;;;;;;;;2212898;67;1920;-68
2023/03/19 01:49:44;;;;;;;;;;;;;;;;;;2210515;67;1196;-68
2023/03/19 01:52:15;;;;;;;;;;;;;;;;;;2212775;66;1097;-69
2023/03/19 01:54:46;;;;;;;;;;;;;;;;;;2212175;66;1154;-68
2023/03/19 01:57:17;;;;;;;;;;;;;;;;;;2208052;67;1197;-68
2023/03/19 01:59:52;;;;;;;;;;;;;;;;;;2211866;67;1238;-68
2023/03/19 02:02:30;;;;;;;;;;;;;;;;;;2212666;66;1149;-68
2023/03/19 02:05:04;;;;;;;;;;;;;;;;;;2212834;67;1103;-69
2023/03/19 02:07:35;;;;;;;;;;;;;;;;;;2212465;67;1927;-68
2023/03/19 02:10:10;;;;;;;;;;;;;;;;;;2211969;59;1306;-69
2023/03/19 02:12:41;;;;;;;;;;;;;;;;;;2212310;67;1160;-69
2023/03/19 02:15:11;;;;;;;;;;;;;;;;;;2213092;67;1147;-69
2023/03/19 02:17:42;;;;;;;;;;;;;;;;;;2211754;67;1218;-69
2023/03/19 02:20:36;;;;;;;;;;;;;;;;;;2212490;67;1134;-69
2023/03/19 02:23:12;;;;;;;;;;;;;;;;;;2213142;67;1163;-68
2023/03/19 02:25:43;;;;;;;;;;;;;;;;;;2212743;67;1151;-69
2023/03/19 02:28:16;;;;;;;;;;;;;;;;;;2211909;67;1939;-69
2023/03/19 02:30:47;;;;;;;;;;;;;;;;;;2212403;67;1156;-68
2023/03/19 02:33:18;;;;;;;;;;;;;;;;;;2215168;66;1083;-69
2023/03/19 02:35:50;;;;;;;;;;;;;;;;;;2212199;66;1223;-69
2023/03/19 02:38:22;;;;;;;;;;;;;;;;;;2212880;67;1198;-68
2023/03/19 02:41:03;;;;;;;;;;;;;;;;;;2211972;59;1074;-69
2023/03/19 02:43:38;;;;;;;;;;;;;;;;;;2212218;67;1147;-69
2023/03/19 02:46:10;;;;;;;;;;;;;;;;;;2212510;59;1228;-69
2023/03/19 02:48:41;;;;;;;;;;;;;;;;;;2215013;66;2002;-69
2023/03/19 02:51:14;;;;;;;;;;;;;;;;;;2212101;67;1185;-68
2023/03/19 02:53:44;;;;;;;;;;;;;;;;;;2212215;66;1168;-69
2023/03/19 02:56:15;;;;;;;;;;;;;;;;;;2211972;66;1198;-69
2023/03/19 02:58:45;;;;;;;;;;;;;;;;;;2212074;67;1241;-69
2023/03/19 03:01:16;;;;;;;;;;;;;;;;;;2212288;67;1274;-69
2023/03/19 03:03:46;;;;;;;;;;;;;;;;;;2212270;67;1333;-69
2023/03/19 03:06:17;;;;;;;;;;;;;;;;;;2214568;59;1165;-69
2023/03/19 03:08:47;;;;;;;;;;;;;;;;;;2214791;66;1923;-69
2023/03/19 03:11:18;;;;;;;;;;;;;;;;;;2214788;59;1516;-69
2023/03/19 03:13:48;;;;;;;;;;;;;;;;;;2212191;67;1220;-68
2023/03/19 03:16:19;;;;;;;;;;;;;;;;;;2212370;67;1368;-69
2023/03/19 03:18:49;;;;;;;;;;;;;;;;;;2212198;66;1295;-69
2023/03/19 03:21:20;;;;;;;;;;;;;;;;;;2212362;59;1145;-69
2023/03/19 03:23:51;;;;;;;;;;;;;;;;;;2212112;66;1234;-69
2023/03/19 03:26:21;;;;;;;;;;;;;;;;;;2212280;67;1098;-69
2023/03/19 03:28:54;;;;;;;;;;;;;;;;;;2211752;67;1935;-69
2023/03/19 03:31:25;;;;;;;;;;;;;;;;;;2212111;67;1052;-69
2023/03/19 03:33:56;;;;;;;;;;;;;;;;;;2212728;66;1069;-69
2023/03/19 03:36:26;;;;;;;;;;;;;;;;;;2212317;59;1784;-68
2023/03/19 03:38:57;;;;;;;;;;;;;;;;;;2212643;66;1234;-69
2023/03/19 03:41:27;;;;;;;;;;;;;;;;;;2212481;67;1044;-69
2023/03/19 03:43:58;;;;;;;;;;;;;;;;;;2212773;67;1156;-68
2023/03/19 03:46:28;;;;;;;;;;;;;;;;;;2213267;59;1169;-69
2023/03/19 03:48:58;;;;;;;;;;;;;;;;;;2212736;67;1946;-69
2023/03/19 03:51:29;;;;;;;;;;;;;;;;;;2212789;67;1131;-69
2023/03/19 03:54:08;;;;;;;;;;;;;;;;;;2212462;67;1122;-69
2023/03/19 03:56:39;;;;;;;;;;;;;;;;;;2212868;67;981;-69
2023/03/19 03:59:09;;;;;;;;;;;;;;;;;;2215457;66;1293;-69
2023/03/19 04:01:40;;;;;;;;;;;;;;;;;;2213150;66;1085;-69
2023/03/19 04:04:10;;;;;;;;;;;;;;;;;;2212787;59;1054;-69
2023/03/19 04:06:40;;;;;;;;;;;;;;;;;;2212997;67;1190;-69
2023/03/19 04:09:11;;;;;;;;;;;;;;;;;;2212584;67;1987;-69
2023/03/19 04:11:41;;;;;;;;;;;;;;;;;;2212873;67;1259;-68
2023/03/19 04:14:12;;;;;;;;;;;;;;;;;;2211954;67;990;-68
2023/03/19 04:16:42;;;;;;;;;;;;;;;;;;2212225;66;1219;-69
2023/03/19 04:19:16;;;;;;;;;;;;;;;;;;2212403;66;1232;-68
2023/03/19 04:21:46;;;;;;;;;;;;;;;;;;2211535;67;1237;-69
2023/03/19 04:24:16;;;;;;;;;;;;;;;;;;2213281;67;1286;-68
2023/03/19 04:26:48;;;;;;;;;;;;;;;;;;2213237;66;1072;-69
2023/03/19 04:29:18;;;;;;;;;;;;;;;;;;2212393;66;1953;-68
2023/03/19 04:31:49;;;;;;;;;;;;;;;;;;2212409;59;1249;-69
2023/03/19 04:34:19;;;;;;;;;;;;;;;;;;2212263;67;1020;-68
2023/03/19 04:36:50;;;;;;;;;;;;;;;;;;2212897;67;1210;-69
2023/03/19 04:39:21;;;;;;;;;;;;;;;;;;2212644;67;1291;-69
2023/03/19 04:41:54;;;;;;;;;;;;;;;;;;2213089;66;1018;-69
2023/03/19 04:44:25;;;;;;;;;;;;;;;;;;2212840;67;1200;-68
2023/03/19 04:46:56;;;;;;;;;;;;;;;;;;2212982;59;1192;-69
2023/03/19 04:49:26;;;;;;;;;;;;;;;;;;2212376;67;1984;-69
2023/03/19 04:51:57;;;;;;;;;;;;;;;;;;2212883;67;1137;-68
2023/03/19 04:54:27;;;;;;;;;;;;;;;;;;2212641;67;1298;-69
2023/03/19 04:56:58;;;;;;;;;;;;;;;;;;2212366;67;1081;-69
2023/03/19 04:59:28;;;;;;;;;;;;;;;;;;2212475;67;1308;-68
2023/03/19 05:01:58;;;;;;;;;;;;;;;;;;2212586;66;1006;-69
2023/03/19 05:04:29;;;;;;;;;;;;;;;;;;2214873;58;1646;-69
2023/03/19 05:06:59;;;;;;;;;;;;;;;;;;2211928;67;1114;-68
2023/03/19 05:09:30;;;;;;;;;;;;;;;;;;2211484;67;1935;-69
2023/03/19 05:12:01;;;;;;;;;;;;;;;;;;2212511;66;1164;-68
2023/03/19 05:14:34;;;;;;;;;;;;;;;;;;2215138;66;1091;-68
2023/03/19 05:17:04;;;;;;;;;;;;;;;;;;2211681;67;1393;-68
2023/03/19 05:19:38;;;;;;;;;;;;;;;;;;2211973;67;1262;-69
2023/03/19 05:22:11;;;;;;;;;;;;;;;;;;2212887;67;1231;-69
2023/03/19 05:24:44;;;;;;;;;;;;;;;;;;2212085;67;1019;-68
2023/03/19 05:27:14;;;;;;;;;;;;;;;;;;2212752;67;1993;-69
2023/03/19 05:29:45;;;;;;;;;;;;;;;;;;2211949;67;1234;-69
2023/03/19 05:32:16;;;;;;;;;;;;;;;;;;2212508;67;1236;-69
2023/03/19 05:34:46;;;;;;;;;;;;;;;;;;2212568;67;1165;-68
2023/03/19 05:37:17;;;;;;;;;;;;;;;;;;2211337;66;1274;-69
2023/03/19 05:39:53;;;;;;;;;;;;;;;;;;2212606;67;1149;-68
2023/03/19 05:42:23;;;;;;;;;;;;;;;;;;2212873;67;1161;-69
2023/03/19 05:44:56;;;;;;;;;;;;;;;;;;2212175;67;1108;-68
2023/03/19 05:47:29;;;;;;;;;;;;;;;;;;2212374;59;1927;-69
2023/03/19 05:50:00;;;;;;;;;;;;;;;;;;2212361;66;1428;-69
2023/03/19 05:52:30;;;;;;;;;;;;;;;;;;2212435;67;1036;-69
2023/03/19 05:55:01;;;;;;;;;;;;;;;;;;2211994;66;1187;-68
2023/03/19 05:57:41;;;;;;;;;;;;;;;;;;2212144;67;1169;-69
2023/03/19 06:00:12;;;;;;;;;;;;;;;;;;2212149;59;1047;-69
2023/03/19 06:02:42;;;;;;;;;;;;;;;;;;2211948;66;1219;-69
2023/03/19 06:05:13;;;;;;;;;;;;;;;;;;2212500;67;1133;-69
2023/03/19 06:07:43;;;;;;;;;;;;;;;;;;2212596;67;1940;-69
2023/03/19 06:10:13;;;;;;;;;;;;;;;;;;2212172;67;1271;-69
2023/03/19 06:12:51;;;;;;;;;;;;;;;;;;2211825;67;1294;-68
2023/03/19 06:15:21;;;;;;;;;;;;;;;;;;2212519;67;1018;-69
2023/03/19 06:17:55;;;;;;;;;;;;;;;;;;2212668;67;1238;-69
2023/03/19 06:20:28;;;;;;;;;;;;;;;;;;2211818;67;1640;-69
2023/03/19 06:22:58;;;;;;;;;;;;;;;;;;2212320;67;1163;-69
2023/03/19 06:25:28;;;;;;;;;;;;;;;;;;2211455;59;1093;-68
2023/03/19 06:27:59;;;;;;;;;;;;;;;;;;2212370;67;1928;-69
2023/03/19 06:30:29;;;;;;;;;;;;;;;;;;2210644;67;1184;-69
2023/03/19 06:33:00;;;;;;;;;;;;;;;;;;2212211;66;1149;-69
2023/03/19 06:35:33;;;;;;;;;;;;;;;;;;2211073;59;1654;-69
2023/03/19 06:38:04;;;;;;;;;;;;;;;;;;2212426;58;1254;-68
2023/03/19 06:40:35;;;;;;;;;;;;;;;;;;2212194;67;1018;-69
2023/03/19 06:43:06;;;;;;;;;;;;;;;;;;2212377;66;1228;-69
2023/03/19 06:45:36;;;;;;;;;;;;;;;;;;2212682;66;1158;-69
2023/03/19 06:48:09;;;;;;;;;;;;;;;;;;2214914;59;1990;-69
2023/03/19 06:50:39;;;;;;;;;;;;;;;;;;2212296;67;1190;-69
2023/03/19 06:53:10;;;;;;;;;;;;;;;;;;2215993;67;1123;-69
2023/03/19 06:55:40;;;;;;;;;;;;;;;;;;2212903;67;1071;-69
2023/03/19 06:58:10;;;;;;;;;;;;;;;;;;2211759;67;1269;-68
2023/03/19 07:00:41;;;;;;;;;;;;;;;;;;2211872;58;982;-69
2023/03/19 07:03:11;;;;;;;;;;;;;;;;;;2212615;67;1064;-69
2023/03/19 07:05:41;;;;;;;;;;;;;;;;;;2212808;67;1081;-69
2023/03/19 07:08:11;;;;;;;;;;;;;;;;;;2212944;67;2002;-69
2023/03/19 07:10:42;;;;;;;;;;;;;;;;;;2212637;67;1114;-69
2023/03/19 07:13:12;;;;;;;;;;;;;;;;;;2213733;67;1231;-69
2023/03/19 07:15:46;;;;;;;;;;;;;;;;;;2212972;59;1338;-69
2023/03/19 07:18:16;;;;;;;;;;;;;;;;;;2212994;67;1287;-69
2023/03/19 07:20:46;;;;;;;;;;;;;;;;;;2213269;59;1139;-69
2023/03/19 07:23:19;;;;;;;;;;;;;;;;;;2213304;67;1079;-69
2023/03/19 07:25:49;;;;;;;;;;;;;;;;;;2212625;66;1131;-69
2023/03/19 07:28:20;;;;;;;;;;;;;;;;;;2213404;67;1992;-69
2023/03/19 07:30:55;;;;;;;;;;;;;;;;;;2212630;67;1070;-69
2023/03/19 07:33:25;;;;;;;;;;;;;;;;;;2213329;67;1247;-69
2023/03/19 07:35:55;;;;;;;;;;;;;;;;;;2212840;67;1101;-69
2023/03/19 07:38:26;;;;;;;;;;;;;;;;;;2213324;67;1325;-68
2023/03/19 07:40:56;;;;;;;;;;;;;;;;;;2212331;59;1131;-69
2023/03/19 07:43:27;;;;;;;;;;;;;;;;;;2212713;66;1101;-69
2023/03/19 07:45:57;;;;;;;;;;;;;;;;;;2213233;59;1052;-69
2023/03/19 07:48:28;;;;;;;;;;;;;;;;;;2212674;67;1924;-69
2023/03/19 07:50:58;;;;;;;;;;;;;;;;;;2214815;66;1088;-69
2023/03/19 07:53:28;;;;;;;;;;;;;;;;;;2213028;59;1091;-69
2023/03/19 07:56:05;;;;;;;;;;;;;;;;;;2212903;67;1231;-69
2023/03/19 07:58:35;;;;;;;;;;;;;;;;;;2212318;67;1293;-69
2023/03/19 08:01:06;;;;;;;;;;;;;;;;;;2213108;67;980;-69
2023/03/19 08:03:37;;;;;;;;;;;;;;;;;;2212986;66;1024;-69
2023/03/19 08:06:07;;;;;;;;;;;;;;;;;;2212802;67;1127;-69
2023/03/19 08:08:38;;;;;;;;;;;;;;;;;;2212880;67;1935;-69
2023/03/19 08:11:08;;;;;;;;;;;;;;;;;;2215812;66;1277;-69
2023/03/19 08:13:39;;;;;;;;;;;;;;;;;;2212905;66;1116;-69
2023/03/19 08:16:09;;;;;;;;;;;;;;;;;;2213301;67;1222;-69
2023/03/19 08:18:39;;;;;;;;;;;;;;;;;;2213737;66;1135;-69
2023/03/19 08:21:10;;;;;;;;;;;;;;;;;;2213291;67;1091;-69
2023/03/19 08:23:40;;;;;;;;;;;;;;;;;;2213173;67;1320;-69
2023/03/19 08:26:11;;;;;;;;;;;;;;;;;;2213975;67;1083;-69
2023/03/19 08:28:41;;;;;;;;;;;;;;;;;;2213870;67;1991;-69
2023/03/19 08:31:15;;;;;;;;;;;;;;;;;;2214597;67;1114;-69
2023/03/19 08:33:45;;;;;;;;;;;;;;;;;;2215390;66;1030;-69
2023/03/19 08:36:16;;;;;;;;;;;;;;;;;;2221147;67;1120;-70
2023/03/19 08:38:46;;;;;;;;;;;;;;;;;;2223139;66;1245;-69
2023/03/19 08:41:17;;;;;;;;;;;;;;;;;;2223263;67;1048;-69
2023/03/19 08:43:47;;;;;;;;;;;;;;;;;;2228142;66;1216;-69
2023/03/19 08:46:18;;;;;;;;;;;;;;;;;;2225246;66;1266;-69
2023/03/19 08:48:48;;;;;;;;;;;;;;;;;;2225046;66;1909;-69
2023/03/19 08:51:18;;;;;;;;;;;;;;;;;;2225243;67;1049;-69
2023/03/19 08:53:49;;;;;;;;;;;;;;;;;;2224557;67;1120;-69
2023/03/19 08:56:19;;;;;;;;;;;;;;;;;;2224519;59;1046;-69
2023/03/19 08:58:50;;;;;;;;;;;;;;;;;;2224702;66;1237;-68
2023/03/19 09:01:20;;;;;;;;;;;;;;;;;;2225049;59;1048;-69
2023/03/19 09:03:51;;;;;;;;;;;;;;;;;;2224568;67;1055;-69
2023/03/19 09:06:21;;;;;;;;;;;;;;;;;;2224590;67;1143;-69
2023/03/19 09:08:52;;;;;;;;;;;;;;;;;;2224016;67;1964;-69
2023/03/19 09:11:22;;;;;;;;;;;;;;;;;;2224318;67;1150;-69
2023/03/19 09:13:52;;;;;;;;;;;;;;;;;;2224011;67;1023;-69
2023/03/19 09:16:24;;;;;;;;;;;;;;;;;;2224021;67;1070;-69
2023/03/19 09:18:55;;;;;;;;;;;;;;;;;;2223290;67;1143;-69
2023/03/19 09:21:25;;;;;;;;;;;;;;;;;;2223848;67;1003;-69
2023/03/19 09:23:55;;;;;;;;;;;;;;;;;;2221262;67;1045;-69
2023/03/19 09:26:26;;;;;;;;;;;;;;;;;;2217378;58;1567;-69
2023/03/19 09:28:56;;;;;;;;;;;;;;;;;;2210601;67;1936;-69
2023/03/19 09:31:26;;;;;;;;;;;;;;;;;;2215659;66;1698;-69
2023/03/19 09:33:57;;;;;;;;;;;;;;;;;;2213058;66;1058;-69
2023/03/19 09:36:27;;;;;;;;;;;;;;;;;;2212702;67;1037;-69
2023/03/19 09:38:58;;;;;;;;;;;;;;;;;;2212542;67;1241;-69
2023/03/19 09:41:37;;;;;;;;;;;;;;;;;;2211819;59;1168;-69
2023/03/19 09:44:10;;;;;;;;;;;;;;;;;;2212329;66;1312;-69
2023/03/19 09:46:47;;;;;;;;;;;;;;;;;;2212182;59;1151;-69
2023/03/19 09:49:32;;;;;;;;;;;;;;;;;;2212406;66;1933;-69
2023/03/19 09:52:23;;;;;;;;;;;;;;;;;;2211698;67;1045;-69
2023/03/19 09:54:57;;;;;;;;;;;;;;;;;;2212091;67;1173;-69
2023/03/19 09:57:28;;;;;;;;;;;;;;;;;;2212815;66;1124;-69
2023/03/19 09:59:59;;;;;;;;;;;;;;;;;;2211815;67;1245;-69
2023/03/19 10:02:55;;;;;;;;;;;;;;;;;;2212173;67;1473;-69
2023/03/19 10:05:38;;;;;;;;;;;;;;;;;;2212677;66;1197;-69
2023/03/19 10:08:17;;;;;;;;;;;;;;;;;;2212774;67;1990;-69
2023/03/19 10:11:07;;;;;;;;;;;;;;;;;;2211923;67;1087;-69
2023/03/19 10:13:42;;;;;;;;;;;;;;;;;;2214783;66;1334;-69
2023/03/19 10:16:17;;;;;;;;;;;;;;;;;;2211223;66;2054;-69
2023/03/19 10:18:49;;;;;;;;;;;;;;;;;;2211877;66;1168;-69
2023/03/19 10:21:22;;;;;;;;;;;;;;;;;;2212145;67;1255;-69
2023/03/19 10:23:59;;;;;;;;;;;;;;;;;;2211491;60;1037;-69
2023/03/19 10:26:31;;;;;;;;;;;;;;;;;;2214776;66;1146;-69
2023/03/19 10:29:13;;;;;;;;;;;;;;;;;;2211644;67;1926;-69
2023/03/19 10:31:59;;;;;;;;;;;;;;;;;;2211830;67;1123;-69
2023/03/19 10:34:31;;;;;;;;;;;;;;;;;;2211732;59;1139;-69
2023/03/19 10:37:16;;;;;;;;;;;;;;;;;;2211982;66;1136;-69
2023/03/19 10:39:47;;;;;;;;;;;;;;;;;;2211708;67;1301;-69
2023/03/19 10:42:30;;;;;;;;;;;;;;;;;;2211831;66;1298;-68
2023/03/19 10:45:13;;;;;;;;;;;;;;;;;;2210825;67;1098;-69
2023/03/19 10:47:44;;;;;;;;;;;;;;;;;;2212209;59;1987;-69
2023/03/19 10:50:15;;;;;;;;;;;;;;;;;;2214932;66;1085;-69
2023/03/19 10:52:50;;;;;;;;;;;;;;;;;;2212117;66;1020;-69
2023/03/19 10:55:25;;;;;;;;;;;;;;;;;;2212465;67;1012;-69
2023/03/19 10:58:02;;;;;;;;;;;;;;;;;;2211142;67;1205;-69
2023/03/19 11:00:34;;;;;;;;;;;;;;;;;;2212394;67;1127;-69
2023/03/19 11:03:25;;;;;;;;;;;;;;;;;;2212033;59;1124;-69
2023/03/19 11:06:06;;;;;;;;;;;;;;;;;;2211106;59;1452;-69
2023/03/19 11:08:36;;;;;;;;;;;;;;;;;;2211366;67;1939;-69
2023/03/19 11:11:21;;;;;;;;;;;;;;;;;;2211730;67;1181;-69
2023/03/19 11:13:52;;;;;;;;;;;;;;;;;;2211613;67;1008;-68
2023/03/19 11:16:22;;;;;;;;;;;;;;;;;;2211809;67;1034;-69
2023/03/19 11:18:52;;;;;;;;;;;;;;;;;;2212108;67;1135;-69
2023/03/19 11:21:29;;;;;;;;;;;;;;;;;;2215018;59;1139;-69
2023/03/19 11:24:01;;;;;;;;;;;;;;;;;;2211935;67;1058;-69
2023/03/19 11:26:31;;;;;;;;;;;;;;;;;;2212038;66;1120;-70
2023/03/19 11:29:03;;;;;;;;;;;;;;;;;;2211782;67;1936;-70
2023/03/19 11:31:45;;;;;;;;;;;;;;;;;;2212583;66;1152;-69
2023/03/19 11:34:32;;;;;;;;;;;;;;;;;;2211689;59;1125;-71
2023/03/19 11:37:09;;;;;;;;;;;;;;;;;;2214938;66;1126;-69
2023/03/19 11:39:51;;;;;;;;;;;;;;;;;;2212216;67;1236;-69
2023/03/19 11:42:27;;;;;;;;;;;;;;;;;;2214804;66;1053;-69
2023/03/19 11:45:16;;;;;;;;;;;;;;;;;;2212216;67;1092;-69
2023/03/19 11:48:00;;;;;;;;;;;;;;;;;;2211787;67;1987;-69
2023/03/19 11:50:48;;;;;;;;;;;;;;;;;;2212341;67;1190;-69
2023/03/19 11:53:27;;;;;;;;;;;;;;;;;;2212525;66;1287;-69
2023/03/19 11:56:12;;;;;;;;;;;;;;;;;;2212610;59;1275;-69
2023/03/19 11:59:00;;;;;;;;;;;;;;;;;;2212452;66;1155;-69
2023/03/19 12:01:37;;;;;;;;;;;;;;;;;;2212991;67;1103;-69
2023/03/19 12:04:20;;;;;;;;;;;;;;;;;;2213257;59;1132;-69
2023/03/19 12:07:01;;;;;;;;;;;;;;;;;;2215786;66;1141;-69
2023/03/19 12:09:38;;;;;;;;;;;;;;;;;;2211789;59;1989;-69
2023/03/19 12:12:23;;;;;;;;;;;;;;;;;;2212186;67;1205;-69
2023/03/19 12:15:12;;;;;;;;;;;;;;;;;;2211880;66;1028;-69
2023/03/19 12:18:03;;;;;;;;;;;;;;;;;;2212576;67;1253;-69
2023/03/19 12:20:52;;;;;;;;;;;;;;;;;;2210417;67;1214;-69
2023/03/19 12:23:41;;;;;;;;;;;;;;;;;;2212955;67;1116;-69
2023/03/19 12:26:20;;;;;;;;;;;;;;;;;;2212450;67;1076;-69
2023/03/19 12:29:00;;;;;;;;;;;;;;;;;;2212444;67;1932;-69
2023/03/19 12:31:43;;;;;;;;;;;;;;;;;;2211973;67;979;-69
2023/03/19 12:34:22;;;;;;;;;;;;;;;;;;2212340;67;1191;-69
2023/03/19 12:37:07;;;;;;;;;;;;;;;;;;2212607;67;1143;-69
2023/03/19 12:39:42;;;;;;;;;;;;;;;;;;2211955;66;1248;-69
2023/03/19 12:42:15;;;;;;;;;;;;;;;;;;2212262;59;1289;-69
2023/03/19 12:44:50;;;;;;;;;;;;;;;;;;2212623;66;1102;-71
2023/03/19 12:47:34;;;;;;;;;;;;;;;;;;2212668;59;1163;-70
2023/03/19 12:50:15;;;;;;;;;;;;;;;;;;2212727;67;1251;-69
2023/03/19 12:52:50;;;;;;;;;;;;;;;;;;2212274;59;1206;-69
2023/03/19 12:55:21;;;;;;;;;;;;;;;;;;2212518;66;1136;-69
2023/03/19 12:58:03;;;;;;;;;;;;;;;;;;2212411;59;1237;-70
2023/03/19 13:00:45;;;;;;;;;;;;;;;;;;2212441;67;1184;-69
2023/03/19 13:03:35;;;;;;;;;;;;;;;;;;2212536;67;1041;-69
2023/03/19 13:06:09;;;;;;;;;;;;;;;;;;2212707;67;1167;-69
2023/03/19 13:08:39;;;;;;;;;;;;;;;;;;2212049;66;2004;-69
2023/03/19 13:11:14;;;;;;;;;;;;;;;;;;2211504;67;1091;-69
2023/03/19 13:13:52;;;;;;;;;;;;;;;;;;2212125;67;1302;-69
2023/03/19 13:16:31;;;;;;;;;;;;;;;;;;2212267;66;1102;-69
2023/03/19 13:19:06;;;;;;;;;;;;;;;;;;2211659;59;1242;-69
2023/03/19 13:21:40;;;;;;;;;;;;;;;;;;2211998;67;1168;-68
2023/03/19 13:24:16;;;;;;;;;;;;;;;;;;2212197;59;1165;-69
2023/03/19 13:26:47;;;;;;;;;;;;;;;;;;2212341;67;1036;-69
2023/03/19 13:29:19;;;;;;;;;;;;;;;;;;2211788;66;1943;-69
2023/03/19 13:31:50;;;;;;;;;;;;;;;;;;2211487;59;1904;-69
2023/03/19 13:34:25;;;;;;;;;;;;;;;;;;2212325;66;1009;-69
2023/03/19 13:36:58;;;;;;;;;;;;;;;;;;2211968;67;1316;-69
2023/03/19 13:39:31;;;;;;;;;;;;;;;;;;2211888;59;1277;-69
2023/03/19 13:42:06;;;;;;;;;;;;;;;;;;2212071;66;1107;-69
2023/03/19 13:45:00;;;;;;;;;;;;;;;;;;2211993;67;1076;-69
2023/03/19 13:47:36;;;;;;;;;;;;;;;;;;2210429;59;1941;-69
2023/03/19 13:50:11;;;;;;;;;;;;;;;;;;2211984;67;1343;-69
2023/03/19 13:52:44;;;;;;;;;;;;;;;;;;2211878;66;1016;-69
2023/03/19 13:55:24;;;;;;;;;;;;;;;;;;2211355;67;1123;-69
2023/03/19 13:58:11;;;;;;;;;;;;;;;;;;2212214;59;1273;-69
2023/03/19 14:00:44;;;;;;;;;;;;;;;;;;2214524;66;1071;-69
2023/03/19 14:03:19;;;;;;;;;;;;;;;;;;2212601;66;1099;-70
2023/03/19 14:05:51;;;;;;;;;;;;;;;;;;2212283;67;1239;-69
2023/03/19 14:08:23;;;;;;;;;;;;;;;;;;2213797;66;1944;-68
2023/03/19 14:10:56;;;;;;;;;;;;;;;;;;2211990;66;1206;-68
2023/03/19 14:13:32;;;;;;;;;;;;;;;;;;2212445;66;1132;-69
2023/03/19 14:16:15;;;;;;;;;;;;;;;;;;2212315;67;1116;-69
2023/03/19 14:18:46;;;;;;;;;;;;;;;;;;2211888;66;1295;-69
2023/03/19 14:21:30;;;;;;;;;;;;;;;;;;2212874;67;1133;-69
2023/03/19 14:24:25;;;;;;;;;;;;;;;;;;2211920;67;1078;-69
2023/03/19 14:27:01;;;;;;;;;;;;;;;;;;2212528;67;1076;-69
2023/03/19 14:29:33;;;;;;;;;;;;;;;;;;2210839;67;1937;-69
2023/03/19 14:32:10;;;;;;;;;;;;;;;;;;2213072;67;1227;-68
2023/03/19 14:34:42;;;;;;;;;;;;;;;;;;2212313;67;1498;-69
2023/03/19 14:37:15;;;;;;;;;;;;;;;;;;2216367;58;1022;-69
2023/03/19 14:39:49;;;;;;;;;;;;;;;;;;2213021;67;1237;-69
2023/03/19 14:42:26;;;;;;;;;;;;;;;;;;2213558;67;1176;-69
2023/03/19 14:45:12;;;;;;;;;;;;;;;;;;2212876;67;1005;-69
2023/03/19 14:48:01;;;;;;;;;;;;;;;;;;2213425;59;1933;-69
2023/03/19 14:50:49;;;;;;;;;;;;;;;;;;2213768;67;1178;-68
2023/03/19 14:53:34;;;;;;;;;;;;;;;;;;2215027;67;1126;-69
2023/03/19 14:56:14;;;;;;;;;;;;;;;;;;2217261;58;1684;-69
2023/03/19 14:58:49;;;;;;;;;;;;;;;;;;2221102;59;1242;-69
2023/03/19 15:01:20;;;;;;;;;;;;;;;;;;2223776;66;990;-69
2023/03/19 15:03:55;;;;;;;;;;;;;;;;;;2223493;67;1167;-69
2023/03/19 15:06:30;;;;;;;;;;;;;;;;;;2224278;67;1166;-69
2023/03/19 15:09:01;;;;;;;;;;;;;;;;;;2214824;67;1945;-69
2023/03/19 15:11:31;;;;;;;;;;;;;;;;;;2211850;67;1205;-69
2023/03/19 15:14:01;;;;;;;;;;;;;;;;;;2211419;60;1069;-69
2023/03/19 15:16:51;;;;;;;;;;;;;;;;;;2212044;67;1156;-69
2023/03/19 15:19:24;;;;;;;;;;;;;;;;;;2211231;67;1275;-68
2023/03/19 15:22:09;;;;;;;;;;;;;;;;;;2211635;66;1013;-68
2023/03/19 15:24:40;;;;;;;;;;;;;;;;;;2211739;66;1104;-69
2023/03/19 15:27:30;;;;;;;;;;;;;;;;;;2212724;67;994;-68
2023/03/19 15:30:01;;;;;;;;;;;;;;;;;;2211803;67;1945;-69
2023/03/19 15:32:40;;;;;;;;;;;;;;;;;;2212436;67;1028;-69
2023/03/19 15:35:11;;;;;;;;;;;;;;;;;;2212632;66;1080;-69
2023/03/19 15:37:43;;;;;;;;;;;;;;;;;;2212139;59;1241;-69
2023/03/19 15:40:15;;;;;;;;;;;;;;;;;;2211392;66;1298;-69
2023/03/19 15:42:49;;;;;;;;;;;;;;;;;;2212116;67;1368;-68
2023/03/19 15:45:23;;;;;;;;;;;;;;;;;;2212905;67;1137;-68
2023/03/19 15:47:56;;;;;;;;;;;;;;;;;;2212378;67;1987;-68
2023/03/19 15:50:29;;;;;;;;;;;;;;;;;;2212070;59;2017;-68
2023/03/19 15:53:01;;;;;;;;;;;;;;;;;;2211985;66;1433;-68
2023/03/19 15:55:34;;;;;;;;;;;;;;;;;;2210171;67;1308;-68
2023/03/19 15:58:06;;;;;;;;;;;;;;;;;;2212421;66;1220;-68
2023/03/19 16:00:39;;;;;;;;;;;;;;;;;;2211915;67;1078;-67
2023/03/19 16:03:21;;;;;;;;;;;;;;;;;;2212645;67;1160;-68
2023/03/19 16:05:58;;;;;;;;;;;;;;;;;;2211487;67;1386;-69
2023/03/19 16:08:29;;;;;;;;;;;;;;;;;;2214608;59;2016;-68
2023/03/19 16:11:13;;;;;;;;;;;;;;;;;;2212274;66;1065;-68
2023/03/19 16:13:54;;;;;;;;;;;;;;;;;;2212681;59;1094;-68
2023/03/19 16:16:29;;;;;;;;;;;;;;;;;;2212508;67;1122;-68
2023/03/19 16:19:00;;;;;;;;;;;;;;;;;;2212594;66;1354;-68
2023/03/19 16:21:37;;;;;;;;;;;;;;;;;;2212570;67;1203;-68
2023/03/19 16:24:07;;;;;;;;;;;;;;;;;;2212703;67;1061;-68
2023/03/19 16:26:41;;;;;;;;;;;;;;;;;;2212718;67;1163;-69
2023/03/19 16:29:24;;;;;;;;;;;;;;;;;;2212377;67;1940;-69
2023/03/19 16:32:13;;;;;;;;;;;;;;;;;;2212574;67;1049;-68
2023/03/19 16:34:46;;;;;;;;;;;;;;;;;;2212336;67;1246;-68
2023/03/19 16:37:35;;;;;;;;;;;;;;;;;;2212285;59;1041;-69
2023/03/19 16:40:11;;;;;;;;;;;;;;;;;;2212217;67;1303;-68
2023/03/19 16:42:42;;;;;;;;;;;;;;;;;;2211938;67;1177;-68
2023/03/19 16:45:15;;;;;;;;;;;;;;;;;;2212507;66;2099;-68
2023/03/19 16:47:47;;;;;;;;;;;;;;;;;;2212755;67;1933;-68
2023/03/19 16:50:19;;;;;;;;;;;;;;;;;;2211736;67;2140;-68
2023/03/19 16:52:49;;;;;;;;;;;;;;;;;;2212392;66;1194;-69
2023/03/19 16:55:19;;;;;;;;;;;;;;;;;;2213010;67;1116;-68
2023/03/19 16:57:55;;;;;;;;;;;;;;;;;;2212104;67;1185;-68
2023/03/19 17:00:25;;;;;;;;;;;;;;;;;;2209170;67;1156;-68
2023/03/19 17:02:56;;;;;;;;;;;;;;;;;;2211686;67;1083;-68
2023/03/19 17:05:28;;;;;;;;;;;;;;;;;;2212288;59;1345;-68
2023/03/19 17:07:58;;;;;;;;;;;;;;;;;;2211540;66;1932;-68
2023/03/19 17:10:30;;;;;;;;;;;;;;;;;;2211886;66;1232;-68
2023/03/19 17:13:01;;;;;;;;;;;;;;;;;;2212725;66;1114;-68
2023/03/19 17:15:36;;;;;;;;;;;;;;;;;;2212743;67;1099;-69
2023/03/19 17:18:26;;;;;;;;;;;;;;;;;;2212021;67;1243;-68
2023/03/19 17:20:59;;;;;;;;;;;;;;;;;;2212001;67;1223;-68
2023/03/19 17:23:29;;;;;;;;;;;;;;;;;;2212496;66;1247;-68
2023/03/19 17:26:01;;;;;;;;;;;;;;;;;;2214817;66;1404;-68
2023/03/19 17:28:32;;;;;;;;;;;;;;;;;;2212552;66;1929;-68
2023/03/19 17:31:02;;;;;;;;;;;;;;;;;;2214866;66;1421;-68
2023/03/19 17:33:33;;;;;;;;;;;;;;;;;;2212259;67;1219;-68
2023/03/19 17:36:08;;;;;;;;;;;;;;;;;;2214789;66;1939;-68
2023/03/19 17:38:41;;;;;;;;;;;;;;;;;;2208317;59;2123;-68
2023/03/19 17:41:13;;;;;;;;;;;;;;;;;;2212714;66;1406;-68
2023/03/19 17:43:43;;;;;;;;;;;;;;;;;;2212129;67;1115;-68
2023/03/19 17:46:34;;;;;;;;;;;;;;;;;;2212118;59;1105;-68
2023/03/19 17:49:06;;;;;;;;;;;;;;;;;;2215145;66;1992;-68